Atlantic - Newfoundland: Past 24 Hour Conditions

 

St. John's Int'l Airport

08:30 PM NDT 30 October 2014
This table is a summary of hourly weather conditions for the past 24 hours.
Date / Time
(NDT)
Wind(knots) Conditions Visibility(km) Pressure(kPa) Air tempC) Relative humidity(%) Dew pointC)
30 October 2014
20:30 WSW 19 gust 25 Light Rainshower 19 100.6 14 98 13
19:30 WSW 17 gust 27 Mostly Cloudy 24 100.6 14 97 14
18:30 WSW 19 gust 30 Mostly Cloudy 13 100.6 14 98 14
17:30 WSW 17 gust 22 Mostly Cloudy 24 100.6 14 97 14
16:30 SW 20 gust 28 Light Rainshower 24 100.6 15 97 14
15:30 SW 21 gust 30 Light Rainshower 24 100.6 15 95 14
14:30 WSW 21 gust 32 Cloudy 16 100.6 16 94 15
13:30 SW 27 gust 37 Light Rainshower 19 100.7 15 95 15
12:30 SW 19 gust 27 Cloudy 16 100.8 16 95 15
11:30 SW 19 gust 32 Cloudy 19 100.9 16 96 15
10:30 SW 13 gust 26 Light Drizzle 16 100.9 15 97 14
9:30 SW 20 Light Rainshower 21 101.0 14 N/A N/A
8:30 SW 16 gust 27 Light Rainshower 24 101.0 12 97 12
7:30 SSW 15 gust 25 Cloudy 24 101.1 10 97 10
6:30 SSW 19 gust 29 Cloudy 24 101.1 10 94 9
5:30 SSW 14 gust 22 Mostly Cloudy 24 101.2 8 94 7
4:30 SSW 11 gust 19 Mostly Cloudy 24 101.3 8 93 7
3:30 SSW 10 Mostly Cloudy 24 101.5 6 96 6
2:30 SSW 8 Cloudy 24 101.6 5 96 5
1:30 SSW 9 Mostly Cloudy 24 101.7 5 95 4
0:30 SSW 8 Cloudy 24 101.7 4 93 3
29 October 2014
23:30 SSW 6 Mostly Cloudy 24 101.8 4 93 3
22:30 SSW 5 Mostly Cloudy 24 101.9 3 93 2
21:30 SW 8 Partly Cloudy 24 102.0 3 91 2
20:30 SSW 6 Mostly Cloudy 24 102.0 3 91 2
 
Map of Atlantic - Newfoundland marine weather areas Southwestern Grand Banks - 44138 Banquereau - 44139 Tail of the Bank - 44140 Nickerson Bank - 44251 Northeast Burgeo Bank - 44255 Blanc-Sablon Airport Cap Whittle Chevery Natashquan Airport Heath Point Miscou Island Grand Étang Ingonish Beach North Mountain St.Paul Island J.A. Douglas McCurdy Sydney Airport Charlottetown Airport East Point North Cape Argentia Bonavista Burgeo Cape Race Corner Brook Daniel's Harbour Englee Ferolle Point La Scie Port aux Basques Rocky Harbour Sagona Island St. Anthony Airport St. John's Int'l Airport St. Lawrence Stephenville Airport Twillingate Winterland Wreckhouse Cartwright Airport Mary's Harbour Grates Cove Pool's Island Marticot Island Long Pond Îles de la Madeleine Airport
Legend: buoyBuoy land stationLand Station